Time;durP1;ratioP1;P1;durP2;ratioP2;P2;SDS_P1;SDS_P2;PMS_P1;PMS_P2;Temp;Humidity;BMP_temperature;BMP_pressure;BME280_temperature;BME280_humidity;BME280_pressure;Samples;Min_cycle;Max_cycle;Signal;HPM_P1;HPM_P2
2021/11/12 00:02:19;;;;;;;11;6.8;;;;;;;5.45;91.05859;941.5023;;;;
2021/11/12 00:04:42;;;;;;;11.1;6.5;;;;;;;5.49;90.62402;941.4631;;;;
2021/11/12 00:12:47;;;;;;;8;5.5;;;;;;;5.07;94.43652;941.4562;;;;
2021/11/12 00:14:11;;;;;;;8.2;5.3;;;;;;;5.09;94.51953;941.3915;;;;
2021/11/12 00:16:36;;;;;;;9.1;5.3;;;;;;;5.09;94.49512;941.3368;;;;
2021/11/12 00:19:02;;;;;;;8.2;5.4;;;;;;;5.07;95.12402;941.3441;;;;
2021/11/12 00:21:27;;;;;;;7.9;5.3;;;;;;;4.99;95.50098;941.3631;;;;
2021/11/12 00:23:54;;;;;;;11.4;6.1;;;;;;;4.92;96.09473;941.3671;;;;
2021/11/12 00:26:19;;;;;;;9.3;5.5;;;;;;;5;95.65137;941.3296;;;;
2021/11/12 00:28:51;;;;;;;9.9;5.7;;;;;;;5.01;95.42578;941.2986;;;;
2021/11/12 00:31:16;;;;;;;8.2;5.2;;;;;;;5.14;94.87012;941.3223;;;;
2021/11/12 00:33:55;;;;;;;9.3;6;;;;;;;5.27;93.68945;941.3519;;;;
2021/11/12 00:36:07;;;;;;;10.3;5.9;;;;;;;5.33;92.73438;941.2184;;;;
2021/11/12 00:38:30;;;;;;;11.7;6.3;;;;;;;5.3;92.72852;941.3098;;;;
2021/11/12 00:40:56;;;;;;;11.1;6.2;;;;;;;5.22;92.82422;941.2045;;;;
2021/11/12 00:43:34;;;;;;;9.6;5.8;;;;;;;5.22;92.54004;941.235;;;;
2021/11/12 00:45:58;;;;;;;9.3;6.2;;;;;;;5.02;93.16211;941.1931;;;;
2021/11/12 00:48:20;;;;;;;9.5;6.1;;;;;;;4.83;94.36035;941.2258;;;;
2021/11/12 00:50:57;;;;;;;9.7;6.5;;;;;;;4.76;95.56055;941.192;;;;
2021/11/12 00:54:07;;;;;;;9;6;;;;;;;4.92;94.92285;941.2076;;;;
2021/11/12 00:55:35;;;;;;;11.5;5.8;;;;;;;4.95;94.18555;941.212;;;;
2021/11/12 00:57:58;;;;;;;9.6;6.1;;;;;;;4.88;94.02246;941.1731;;;;
2021/11/12 01:00:22;;;;;;;10;5.8;;;;;;;4.82;94.42773;941.2151;;;;
2021/11/12 01:02:48;;;;;;;8.5;5.6;;;;;;;4.86;93.90625;941.1661;;;;
2021/11/12 01:05:13;;;;;;;8.8;5.4;;;;;;;4.87;94.35938;941.2019;;;;
2021/11/12 01:07:38;;;;;;;8.5;5.5;;;;;;;4.91;94.35547;941.1811;;;;
2021/11/12 01:10:03;;;;;;;8.8;5.2;;;;;;;4.84;93.8457;941.2317;;;;
2021/11/12 01:12:28;;;;;;;9.8;5.2;;;;;;;4.7;95.50391;941.2184;;;;
2021/11/12 01:14:54;;;;;;;9.3;5.2;;;;;;;4.61;95.93359;941.2153;;;;
2021/11/12 01:17:19;;;;;;;8.2;5.4;;;;;;;4.68;96.36719;941.1824;;;;
2021/11/12 01:19:44;;;;;;;7.6;5;;;;;;;4.86;95.34863;941.1717;;;;
2021/11/12 01:22:11;;;;;;;8.5;4.9;;;;;;;4.87;94.78906;941.1516;;;;
2021/11/12 01:24:36;;;;;;;9.2;5.7;;;;;;;4.89;95.3457;941.1618;;;;
2021/11/12 01:27:02;;;;;;;8.7;5.6;;;;;;;4.99;95.60254;941.1904;;;;
2021/11/12 01:29:27;;;;;;;8.9;5.5;;;;;;;5.06;94.68262;941.1805;;;;
2021/11/12 01:31:54;;;;;;;7.9;5.2;;;;;;;5.13;93.74023;941.183;;;;
2021/11/12 01:34:18;;;;;;;10.6;5.7;;;;;;;5.14;93.17676;941.1649;;;;
2021/11/12 01:36:45;;;;;;;7.5;5.3;;;;;;;5.24;92.42188;941.123;;;;
2021/11/12 01:39:34;;;;;;;9.7;5.3;;;;;;;5.3;92.20996;941.0809;;;;
2021/11/12 01:42:00;;;;;;;9;5;;;;;;;5.32;91.75;941.0829;;;;
2021/11/12 01:44:32;;;;;;;11.2;6;;;;;;;5.28;92.2041;941.0618;;;;
2021/11/12 01:46:57;;;;;;;7;5.1;;;;;;;5.23;91.96875;941.0753;;;;
2021/11/12 01:49:25;;;;;;;7.2;4.9;;;;;;;5.16;92.04395;941.0645;;;;
2021/11/12 01:51:46;;;;;;;6.5;5.1;;;;;;;5.11;92.25781;940.9966;;;;
2021/11/12 01:54:21;;;;;;;6.4;4.8;;;;;;;5.01;92.5293;940.9286;;;;
2021/11/12 01:56:34;;;;;;;8.1;5.3;;;;;;;4.95;93.0791;940.9127;;;;
2021/11/12 01:59:07;;;;;;;7.4;4.8;;;;;;;4.97;92.96973;940.8912;;;;
2021/11/12 02:01:20;;;;;;;9.2;5.1;;;;;;;4.98;92.39941;940.8453;;;;
2021/11/12 02:03:45;;;;;;;9.4;5.1;;;;;;;5.01;91.8418;940.7667;;;;
2021/11/12 02:06:12;;;;;;;5.8;4.3;;;;;;;5.02;92.03711;940.8059;;;;
2021/11/12 02:08:35;;;;;;;11.8;5.6;;;;;;;5;92.50488;940.7606;;;;
2021/11/12 02:11:02;;;;;;;9.9;4.9;;;;;;;4.82;93.07617;940.704;;;;
2021/11/12 02:14:42;;;;;;;7.4;4.7;;;;;;;4.55;94.87207;940.6688;;;;
2021/11/12 02:17:09;;;;;;;7.5;5;;;;;;;4.4;96.3125;940.5438;;;;
2021/11/12 02:19:48;;;;;;;7.9;5.1;;;;;;;4.42;96.31934;940.5906;;;;
2021/11/12 02:22:07;;;;;;;9;5;;;;;;;4.45;96.33594;940.5293;;;;
2021/11/12 02:24:30;;;;;;;8;5;;;;;;;4.42;96.24023;940.5331;;;;
2021/11/12 02:26:57;;;;;;;6.8;4.7;;;;;;;4.54;96.20117;940.4728;;;;
2021/11/12 02:29:21;;;;;;;10.3;5.8;;;;;;;4.54;96.89746;940.4846;;;;
2021/11/12 02:31:47;;;;;;;10.6;5.5;;;;;;;4.63;96.07324;940.4669;;;;
2021/11/12 02:34:12;;;;;;;7.1;5.1;;;;;;;4.68;95.76758;940.4061;;;;
2021/11/12 02:36:37;;;;;;;8.1;5.1;;;;;;;4.69;96.07617;940.4688;;;;
2021/11/12 02:39:02;;;;;;;6.4;4.7;;;;;;;4.79;95.18555;940.4344;;;;
2021/11/12 02:41:27;;;;;;;7.5;4.8;;;;;;;4.74;94.72559;940.4171;;;;
2021/11/12 02:43:53;;;;;;;6.6;4.3;;;;;;;4.64;94.70117;940.3416;;;;
2021/11/12 02:46:18;;;;;;;7.1;4.6;;;;;;;4.44;96.35645;940.3075;;;;
2021/11/12 02:48:42;;;;;;;9.1;4.9;;;;;;;4.45;96.77539;940.2566;;;;
2021/11/12 02:51:10;;;;;;;7.2;4.7;;;;;;;4.43;97.1875;940.2364;;;;
2021/11/12 02:53:34;;;;;;;8.7;4.5;;;;;;;4.55;97.90137;940.1624;;;;
2021/11/12 02:56:02;;;;;;;7.6;4.4;;;;;;;4.59;97.46094;940.2008;;;;
2021/11/12 02:58:24;;;;;;;6.7;4.6;;;;;;;4.78;96.76074;940.1595;;;;
2021/11/12 03:00:50;;;;;;;8.6;4.8;;;;;;;4.88;95.82617;940.1135;;;;
2021/11/12 03:03:16;;;;;;;8.6;4.7;;;;;;;4.92;95.83398;940.2189;;;;
2021/11/12 03:05:42;;;;;;;8.1;4.9;;;;;;;4.91;95.66309;940.2185;;;;
2021/11/12 03:08:07;;;;;;;9.3;5.1;;;;;;;4.78;95.46582;940.2117;;;;
2021/11/12 03:10:33;;;;;;;8.3;5;;;;;;;4.61;96.04688;940.149;;;;
2021/11/12 03:12:58;;;;;;;7.8;4.9;;;;;;;4.59;96.31445;940.2515;;;;
2021/11/12 03:15:24;;;;;;;8;5.4;;;;;;;4.71;95.56445;940.2062;;;;
2021/11/12 03:17:48;;;;;;;9.6;5.7;;;;;;;4.73;94.95801;940.1965;;;;
2021/11/12 03:20:15;;;;;;;8.4;5.1;;;;;;;4.82;93.77441;940.155;;;;
2021/11/12 03:22:44;;;;;;;8.3;4.7;;;;;;;4.87;92.98633;940.1386;;;;
2021/11/12 03:25:08;;;;;;;9.1;5;;;;;;;4.99;92.09863;940.1702;;;;
2021/11/12 03:27:35;;;;;;;12.2;5.5;;;;;;;4.96;91.68555;940.2039;;;;
2021/11/12 03:31:30;;;;;;;9.5;5.2;;;;;;;4.98;91.1709;940.176;;;;
2021/11/12 03:47:11;;;;;;;8.1;5.1;;;;;;;4.68;91.71289;940.0953;;;;
2021/11/12 03:56:38;;;;;;;9.6;5.8;;;;;;;4.32;93.42676;940.1122;;;;
2021/11/12 04:02:38;;;;;;;9.8;5.5;;;;;;;4.37;93.41406;940.0313;;;;
2021/11/12 04:05:12;;;;;;;8.9;5.5;;;;;;;4.3;94.03027;940.0951;;;;
2021/11/12 04:07:46;;;;;;;8.3;5.1;;;;;;;4.33;93.6543;940.0959;;;;
2021/11/12 04:17:28;;;;;;;7.6;4.8;;;;;;;4.16;94.24805;940.0307;;;;
2021/11/12 04:19:42;;;;;;;7.8;4.6;;;;;;;4.13;93.87109;940.1046;;;;
2021/11/12 04:22:12;;;;;;;7.6;4.6;;;;;;;4.2;93.51367;940.0952;;;;
2021/11/12 05:11:35;;;;;;;11.6;6.2;;;;;;;3.86;97.58594;939.8524;;;;
2021/11/12 05:14:09;;;;;;;9.5;5.2;;;;;;;3.97;97.10547;939.9178;;;;
2021/11/12 05:34:27;;;;;;;9.2;6.3;;;;;;;4.01;98.44238;939.8591;;;;
2021/11/12 05:43:45;;;;;;;10.8;7;;;;;;;4.27;96.07227;939.8805;;;;
2021/11/12 05:50:53;;;;;;;9.5;5.9;;;;;;;4.13;96.67188;939.8949;;;;
2021/11/12 05:55:29;;;;;;;9;5.6;;;;;;;4.24;96.2666;939.8716;;;;
2021/11/12 05:57:58;;;;;;;8.3;5.6;;;;;;;4.08;96.51367;939.7701;;;;
2021/11/12 06:00:21;;;;;;;8;5.3;;;;;;;4.07;97.01758;939.7462;;;;
2021/11/12 06:02:47;;;;;;;7.2;4.9;;;;;;;4.08;96.98535;939.745;;;;
2021/11/12 06:05:15;;;;;;;8.5;5.8;;;;;;;4.07;97.1416;939.7178;;;;
2021/11/12 06:07:37;;;;;;;8.9;6;;;;;;;4.07;97.52148;939.7217;;;;
2021/11/12 06:10:03;;;;;;;9.1;5.2;;;;;;;4.18;97.44531;939.7286;;;;
2021/11/12 06:12:28;;;;;;;9.9;5.5;;;;;;;4.21;97.30664;939.7126;;;;
2021/11/12 06:14:53;;;;;;;10;5.5;;;;;;;4.15;97.43652;939.6652;;;;
2021/11/12 06:17:19;;;;;;;9.9;5.9;;;;;;;4.21;98.13965;939.6174;;;;
2021/11/12 06:19:44;;;;;;;8.3;5.5;;;;;;;4.31;98.36328;939.6467;;;;
2021/11/12 06:22:10;;;;;;;9.3;5.9;;;;;;;4.51;97.69043;939.5657;;;;
2021/11/12 06:24:35;;;;;;;10.3;7.2;;;;;;;4.48;96.6123;939.6624;;;;
2021/11/12 06:27:00;;;;;;;15;7.5;;;;;;;4.37;96.09277;939.6442;;;;
2021/11/12 06:29:25;;;;;;;14;7;;;;;;;4.25;96.37012;939.6038;;;;
2021/11/12 06:31:51;;;;;;;13.2;7.6;;;;;;;4.14;97.06543;939.7249;;;;
2021/11/12 06:34:16;;;;;;;15.7;7.9;;;;;;;4.24;97.4707;939.5917;;;;
2021/11/12 06:36:41;;;;;;;13.8;7.9;;;;;;;4.46;96.19434;939.6572;;;;
2021/11/12 06:39:09;;;;;;;15.7;8.8;;;;;;;4.59;94.72461;939.6166;;;;
2021/11/12 06:41:52;;;;;;;11;7.3;;;;;;;4.56;94.40137;939.6013;;;;
2021/11/12 06:44:10;;;;;;;11.4;7.2;;;;;;;4.73;93.62891;939.582;;;;
2021/11/12 06:51:13;;;;;;;10.6;7.1;;;;;;;5.1;91.96191;939.623;;;;
2021/11/12 06:53:39;;;;;;;8;6;;;;;;;5.11;91.08496;939.6305;;;;
2021/11/12 06:56:04;;;;;;;8.9;6.4;;;;;;;4.79;93;939.6778;;;;
2021/11/12 06:58:31;;;;;;;10.9;6.9;;;;;;;4.92;93.35449;939.6375;;;;
2021/11/12 07:00:56;;;;;;;8.8;6;;;;;;;5.42;93.18359;939.6456;;;;
2021/11/12 07:03:23;;;;;;;9;5.6;;;;;;;5.98;89.24902;939.6631;;;;
2021/11/12 07:05:47;;;;;;;7.6;4.8;;;;;;;6.52;85.94434;939.6646;;;;
2021/11/12 07:08:14;;;;;;;7.6;4.5;;;;;;;7.07;83.15527;939.7287;;;;
2021/11/12 07:10:38;;;;;;;11;6;;;;;;;7.34;81.16992;939.6523;;;;
2021/11/12 07:13:03;;;;;;;7.2;5.2;;;;;;;7.79;80.43848;939.5951;;;;
2021/11/12 07:15:30;;;;;;;8.8;5;;;;;;;8.31;77.65137;939.5892;;;;
2021/11/12 07:17:55;;;;;;;8.9;5;;;;;;;8.77;76.30957;939.5892;;;;
2021/11/12 07:20:21;;;;;;;7.5;5;;;;;;;9.17;73.11523;939.6676;;;;
2021/11/12 07:22:45;;;;;;;7.3;4.4;;;;;;;8.95;72.04297;939.6675;;;;
2021/11/12 07:25:11;;;;;;;6.4;4.7;;;;;;;9.54;71.42383;939.6415;;;;
2021/11/12 07:27:36;;;;;;;6.4;4.9;;;;;;;10.27;69.27246;939.6451;;;;
2021/11/12 07:30:04;;;;;;;6;4.8;;;;;;;10.45;67.77344;939.6667;;;;
2021/11/12 07:32:27;;;;;;;7.6;4.6;;;;;;;10.8;66.81152;939.558;;;;
2021/11/12 07:34:54;;;;;;;7.8;5;;;;;;;10.86;65.20996;939.6409;;;;
2021/11/12 07:37:19;;;;;;;7.6;4.6;;;;;;;11.02;65.56445;939.6467;;;;
2021/11/12 07:39:53;;;;;;;6;4.6;;;;;;;11.96;62.55664;939.5536;;;;
2021/11/12 07:42:15;;;;;;;5.7;4.3;;;;;;;12.62;60.37988;939.5795;;;;
2021/11/12 07:45:00;;;;;;;8.6;4.4;;;;;;;13.23;57.81152;939.4719;;;;
2021/11/12 07:47:02;;;;;;;6.3;4.8;;;;;;;13.6;56.71094;939.5011;;;;
2021/11/12 07:49:25;;;;;;;6.6;4.7;;;;;;;13.77;56.27246;939.5076;;;;
2021/11/12 07:51:50;;;;;;;7.2;4.9;;;;;;;14.63;52.78809;939.5264;;;;
2021/11/12 07:54:15;;;;;;;9.3;5.2;;;;;;;14.04;52.87695;939.4614;;;;
2021/11/12 07:56:40;;;;;;;5.7;4.6;;;;;;;14.99;50.4209;939.5106;;;;
2021/11/12 07:59:06;;;;;;;6;4.4;;;;;;;16.13;47.6377;939.4371;;;;
2021/11/12 08:01:31;;;;;;;4.8;3.8;;;;;;;16.59;46.55273;939.3636;;;;
2021/11/12 08:04:00;;;;;;;5.5;3.5;;;;;;;17.42;44.29785;939.3428;;;;
2021/11/12 08:08:54;;;;;;;6.5;4.7;;;;;;;16.83;43.74023;939.3879;;;;
2021/11/12 08:11:15;;;;;;;4.6;3.4;;;;;;;17.1;42.7002;939.3212;;;;
2021/11/12 08:13:42;;;;;;;4.7;3.2;;;;;;;16.67;42.90234;939.2706;;;;
2021/11/12 08:16:19;;;;;;;4.6;3.7;;;;;;;16.72;42.6748;939.2725;;;;
2021/11/12 08:18:41;;;;;;;5;4.1;;;;;;;16.18;43.50293;939.2623;;;;
2021/11/12 08:20:59;;;;;;;4.1;3.7;;;;;;;16.05;43.82422;939.1769;;;;
2021/11/12 08:23:24;;;;;;;2.9;2.6;;;;;;;15.82;43.67383;939.1933;;;;
2021/11/12 08:25:47;;;;;;;3;2.7;;;;;;;15.85;43.68848;939.2251;;;;
2021/11/12 08:28:20;;;;;;;3.9;3;;;;;;;14.71;46.06445;939.2905;;;;
2021/11/12 08:30:50;;;;;;;3.7;2.9;;;;;;;14.09;47.72656;939.2827;;;;
2021/11/12 08:33:10;;;;;;;3.6;2.8;;;;;;;13.23;49.43652;939.2695;;;;
2021/11/12 08:35:34;;;;;;;3.9;3.1;;;;;;;12.26;52.23828;939.3578;;;;
2021/11/12 08:37:58;;;;;;;6.2;3.9;;;;;;;11.86;54.04492;939.3831;;;;
2021/11/12 08:40:21;;;;;;;4.7;3.6;;;;;;;12.04;53.64355;939.366;;;;
2021/11/12 08:42:43;;;;;;;6.3;3.4;;;;;;;10.04;60.3291;939.3472;;;;
2021/11/12 08:45:08;;;;;;;6.7;4.5;;;;;;;9.01;63.36035;939.3003;;;;
2021/11/12 08:47:33;;;;;;;4.5;4;;;;;;;8.55;65.96289;939.3199;;;;
2021/11/12 08:49:58;;;;;;;4.3;3.9;;;;;;;7.64;69.16992;939.327;;;;
2021/11/12 08:52:23;;;;;;;5.4;4.2;;;;;;;7.42;70.58496;939.3787;;;;
2021/11/12 08:54:48;;;;;;;4.7;4.1;;;;;;;7.07;72.89453;939.3692;;;;
2021/11/12 08:57:15;;;;;;;4.5;3.6;;;;;;;6.78;74.15918;939.3544;;;;
2021/11/12 08:59:39;;;;;;;4.3;3.9;;;;;;;6.68;74.65039;939.4483;;;;
2021/11/12 09:02:03;;;;;;;5.8;4.3;;;;;;;6.41;75.62012;939.4236;;;;
2021/11/12 09:04:28;;;;;;;5.1;4.2;;;;;;;6.43;76.30371;939.3411;;;;
2021/11/12 09:06:53;;;;;;;4.7;4.3;;;;;;;6.11;78.69824;939.3784;;;;
2021/11/12 09:09:22;;;;;;;5.8;4.5;;;;;;;6.13;78.89355;939.3997;;;;
2021/11/12 09:11:47;;;;;;;4.9;4.4;;;;;;;6.21;79.37402;939.4133;;;;
2021/11/12 09:14:15;;;;;;;4.9;4.4;;;;;;;5.97;80.55957;939.3742;;;;
2021/11/12 09:16:39;;;;;;;4.5;4.1;;;;;;;6.08;80.54688;939.3074;;;;
2021/11/12 09:19:02;;;;;;;4.7;4.2;;;;;;;6.04;80.55078;939.3259;;;;
2021/11/12 09:21:28;;;;;;;6;4.5;;;;;;;6.08;80.6709;939.3375;;;;
2021/11/12 09:23:52;;;;;;;5.9;4.6;;;;;;;5.96;82.12695;939.2814;;;;
2021/11/12 09:26:17;;;;;;;5.6;5;;;;;;;5.9;82.52344;939.295;;;;
2021/11/12 09:28:42;;;;;;;5.5;4.5;;;;;;;6.01;81.99023;939.31;;;;
2021/11/12 09:31:08;;;;;;;5;4.5;;;;;;;6.24;81.43652;939.2852;;;;
2021/11/12 09:33:32;;;;;;;5.3;4.5;;;;;;;6.16;81.80371;939.2082;;;;
2021/11/12 09:35:58;;;;;;;4.8;4.4;;;;;;;6.3;81.36914;939.1594;;;;
2021/11/12 09:38:23;;;;;;;5.3;4.5;;;;;;;6.29;81.20703;939.186;;;;
2021/11/12 09:40:48;;;;;;;5.9;4.4;;;;;;;6.18;82.08008;939.0965;;;;
2021/11/12 09:43:14;;;;;;;5.1;4.4;;;;;;;6.13;82.04688;939.2447;;;;
2021/11/12 09:45:40;;;;;;;5.3;4.8;;;;;;;6.28;83.09375;939.1644;;;;
2021/11/12 09:48:05;;;;;;;5.6;4.6;;;;;;;6.46;82.12207;939.1094;;;;
2021/11/12 09:50:30;;;;;;;5;4.5;;;;;;;6.52;82.61914;938.993;;;;
2021/11/12 09:52:56;;;;;;;6.2;4.4;;;;;;;6.67;83.08984;938.9504;;;;
2021/11/12 09:55:21;;;;;;;7.4;4.5;;;;;;;6.85;82.95508;938.9408;;;;
2021/11/12 09:57:47;;;;;;;6.3;4.2;;;;;;;6.96;82.50195;938.9325;;;;
2021/11/12 10:00:16;;;;;;;5.2;4.7;;;;;;;6.93;82.25586;938.8644;;;;
2021/11/12 10:02:51;;;;;;;6.7;4.9;;;;;;;7.12;82.36133;938.7559;;;;
2021/11/12 10:05:17;;;;;;;6.9;4.7;;;;;;;7.43;80.82227;938.7603;;;;
2021/11/12 10:07:43;;;;;;;6.4;4.3;;;;;;;7.6;80.01563;938.6958;;;;
2021/11/12 10:10:08;;;;;;;5.1;4.2;;;;;;;7.8;80.22461;938.6972;;;;
2021/11/12 10:12:33;;;;;;;6.9;4.3;;;;;;;7.86;79.27051;938.5558;;;;
2021/11/12 10:15:07;;;;;;;6.4;4.2;;;;;;;7.93;79.69238;938.585;;;;
2021/11/12 10:17:48;;;;;;;5.7;4;;;;;;;8.04;79.16504;938.5383;;;;
2021/11/12 10:19:52;;;;;;;6.9;4.9;;;;;;;8.1;79.30176;938.5069;;;;
2021/11/12 10:22:18;;;;;;;5;4.4;;;;;;;8.06;79.4541;938.4277;;;;
2021/11/12 10:24:43;;;;;;;6.5;4.7;;;;;;;8.22;79.9707;938.4793;;;;
2021/11/12 10:27:09;;;;;;;6.8;4.9;;;;;;;8.12;80.81738;938.3669;;;;
2021/11/12 10:29:33;;;;;;;6.1;4.5;;;;;;;8.18;80.12305;938.3537;;;;
2021/11/12 10:31:59;;;;;;;7.1;5.2;;;;;;;8.36;78.72559;938.3964;;;;
2021/11/12 10:34:24;;;;;;;6.2;4.5;;;;;;;8.47;77.93848;938.382;;;;
2021/11/12 10:36:49;;;;;;;6.3;4.3;;;;;;;8.57;77.37891;938.2664;;;;
2021/11/12 10:39:14;;;;;;;6;4.2;;;;;;;8.63;77.77344;938.2048;;;;
2021/11/12 10:41:39;;;;;;;5.7;4.6;;;;;;;8.7;78.07227;938.1259;;;;
2021/11/12 10:44:04;;;;;;;5;4.2;;;;;;;8.71;77.41406;938.1316;;;;
2021/11/12 10:46:30;;;;;;;5;4.3;;;;;;;8.78;77.98438;938.0723;;;;
2021/11/12 10:48:55;;;;;;;5.4;4.8;;;;;;;9.05;75.93945;938.0531;;;;
2021/11/12 10:51:22;;;;;;;5.6;4.2;;;;;;;9.18;75.19922;937.978;;;;
2021/11/12 10:53:50;;;;;;;5.4;4.1;;;;;;;9.09;75.08105;937.8703;;;;
2021/11/12 10:56:13;;;;;;;6.2;4.2;;;;;;;9.09;76.00195;937.9036;;;;
2021/11/12 10:58:38;;;;;;;4.8;4.1;;;;;;;9.28;74.90918;937.9129;;;;
2021/11/12 11:01:05;;;;;;;5.9;4.1;;;;;;;9.08;76.12695;937.8892;;;;
2021/11/12 11:03:30;;;;;;;6.3;4.1;;;;;;;9.13;75.87402;937.8995;;;;
2021/11/12 11:05:58;;;;;;;5.5;4.2;;;;;;;9.31;75.47363;937.7743;;;;
2021/11/12 11:08:20;;;;;;;10.2;5.2;;;;;;;9.26;76.375;937.8681;;;;
2021/11/12 11:10:47;;;;;;;13.6;6;;;;;;;9.65;78.62988;937.845;;;;
2021/11/12 11:13:12;;;;;;;5.3;4.2;;;;;;;9.78;74.44824;937.8069;;;;
2021/11/12 11:15:38;;;;;;;5.8;4.5;;;;;;;9.7;73.10254;937.8314;;;;
2021/11/12 11:18:03;;;;;;;5.6;4.6;;;;;;;9.71;74.54199;937.7989;;;;
2021/11/12 11:20:28;;;;;;;7.2;4.5;;;;;;;9.85;73.54883;937.7689;;;;
2021/11/12 11:22:55;;;;;;;6.6;4.5;;;;;;;10.07;73.25684;937.7605;;;;
2021/11/12 11:25:19;;;;;;;5;4.2;;;;;;;10.16;72.94141;937.7861;;;;
2021/11/12 11:27:43;;;;;;;5.6;4.3;;;;;;;10.66;70.94629;937.6605;;;;
2021/11/12 11:30:08;;;;;;;6;4.7;;;;;;;12.44;64.9082;937.6627;;;;
2021/11/12 11:32:33;;;;;;;6;4.5;;;;;;;14.07;58.56836;937.5941;;;;
2021/11/12 11:34:58;;;;;;;6.4;4.4;;;;;;;16;53.06934;937.6735;;;;
2021/11/12 11:37:24;;;;;;;4.9;3.8;;;;;;;18;46.17871;937.5987;;;;
2021/11/12 11:39:50;;;;;;;5.6;3.8;;;;;;;20.07;41.6709;937.5435;;;;
2021/11/12 11:42:30;;;;;;;5.6;4;;;;;;;22.09;37.26563;937.5302;;;;
2021/11/12 11:44:55;;;;;;;5.7;3.6;;;;;;;21.64;38.36426;937.5555;;;;
2021/11/12 11:47:31;;;;;;;4.9;3.5;;;;;;;22.16;36.63965;937.4982;;;;
2021/11/12 11:49:45;;;;;;;5.2;3.9;;;;;;;21.02;38.93066;937.4929;;;;
2021/11/12 11:52:12;;;;;;;4.6;4.1;;;;;;;21.2;38.26758;937.4891;;;;
2021/11/12 11:54:36;;;;;;;4.4;3.9;;;;;;;21.33;38.19629;937.376;;;;
2021/11/12 11:57:01;;;;;;;4.9;4.1;;;;;;;22.04;37.37988;937.392;;;;
2021/11/12 11:59:28;;;;;;;4.3;3.6;;;;;;;22.71;36.16797;937.3622;;;;
2021/11/12 12:01:52;;;;;;;5.9;4.1;;;;;;;23.85;33.96484;937.2701;;;;
2021/11/12 12:06:17;;;;;;;4.3;3.9;;;;;;;23.53;34.49414;937.3248;;;;
2021/11/12 12:08:41;;;;;;;5.6;4.7;;;;;;;22.71;35.66309;937.3527;;;;
2021/11/12 12:11:06;;;;;;;5.8;4.1;;;;;;;22.83;35.22656;937.1998;;;;
2021/11/12 12:13:31;;;;;;;6.7;4.2;;;;;;;22.67;35.92969;937.2569;;;;
2021/11/12 12:15:57;;;;;;;8.4;4.9;;;;;;;24.39;32.41602;937.1605;;;;
2021/11/12 12:18:23;;;;;;;7.7;4.3;;;;;;;25.6;30.81348;937.1809;;;;
2021/11/12 12:21:03;;;;;;;5.3;3.8;;;;;;;25.76;30.37598;937.1833;;;;
2021/11/12 12:33:15;;;;;;;4.1;3.3;;;;;;;29.9;24.95508;937.1909;;;;
2021/11/12 13:21:44;;;;;;;5.2;4.7;;;;;;;24.56;32.41602;936.8306;;;;
2021/11/12 13:24:05;;;;;;;6.9;4.2;;;;;;;25.51;31.13867;936.8619;;;;
2021/11/12 13:26:18;;;;;;;6.6;4.9;;;;;;;26.11;29.64258;936.8552;;;;
2021/11/12 13:28:44;;;;;;;7;4.5;;;;;;;26.45;29.09766;936.8607;;;;
2021/11/12 13:31:13;;;;;;;5.4;4.6;;;;;;;25.81;30.04883;936.8265;;;;
2021/11/12 13:33:38;;;;;;;5.7;4.2;;;;;;;26.75;28.92773;936.8428;;;;
2021/11/12 13:36:04;;;;;;;5;4.2;;;;;;;25.9;30.00684;936.8427;;;;
2021/11/12 13:38:28;;;;;;;8.4;4.9;;;;;;;25.47;30.62793;936.8921;;;;
2021/11/12 13:40:53;;;;;;;6.7;5;;;;;;;23.7;33.4248;936.894;;;;
2021/11/12 13:43:18;;;;;;;5.9;5;;;;;;;23.69;33.55371;936.8415;;;;
2021/11/12 13:45:43;;;;;;;5.5;4.6;;;;;;;22.84;35.10938;936.9041;;;;
2021/11/12 13:48:11;;;;;;;5.1;4.5;;;;;;;23.54;33.8125;936.8791;;;;
2021/11/12 13:50:33;;;;;;;5.7;5.1;;;;;;;23.41;34.2373;936.8867;;;;
2021/11/12 13:52:58;;;;;;;5.1;4.6;;;;;;;22.85;35.0293;936.8223;;;;
2021/11/12 13:55:24;;;;;;;5.6;4.5;;;;;;;22.94;35.2002;936.8528;;;;
2021/11/12 13:57:48;;;;;;;7.4;5.1;;;;;;;23.26;35.07227;936.8558;;;;
2021/11/12 14:00:15;;;;;;;6.2;5.6;;;;;;;22.88;35.83008;936.873;;;;
2021/11/12 14:02:40;;;;;;;8.9;4.9;;;;;;;22.68;36.08398;936.8756;;;;
2021/11/12 14:05:05;;;;;;;6.6;5.4;;;;;;;22.7;35.94434;936.8293;;;;
2021/11/12 14:07:30;;;;;;;6.1;5;;;;;;;21.98;36.75293;936.8694;;;;
2021/11/12 14:09:55;;;;;;;5.8;5.2;;;;;;;21.84;37.13965;936.8248;;;;
2021/11/12 14:12:21;;;;;;;7;5.4;;;;;;;22.49;36.04395;936.8546;;;;
2021/11/12 14:14:46;;;;;;;6.3;5.1;;;;;;;22.68;35.67285;936.7855;;;;
2021/11/12 14:17:11;;;;;;;6;5.2;;;;;;;23.12;34.87305;936.7891;;;;
2021/11/12 14:19:55;;;;;;;5.9;5.2;;;;;;;23.44;34.32324;936.7838;;;;
2021/11/12 14:22:05;;;;;;;8.9;5.3;;;;;;;23.17;34.6416;936.77;;;;
2021/11/12 14:24:37;;;;;;;5.7;5.1;;;;;;;23.52;34.11719;936.775;;;;
2021/11/12 14:26:58;;;;;;;6.5;5.4;;;;;;;23.24;34.45996;936.767;;;;
2021/11/12 14:29:19;;;;;;;6.4;5.2;;;;;;;22.36;36.09277;936.8161;;;;
2021/11/12 14:31:52;;;;;;;6.1;5.5;;;;;;;22.14;36.48438;936.7449;;;;
2021/11/12 14:34:17;;;;;;;6.9;5.4;;;;;;;21.93;36.99512;936.8039;;;;
2021/11/12 14:36:41;;;;;;;9.3;5.9;;;;;;;21.55;37.47852;936.7974;;;;
2021/11/12 14:39:04;;;;;;;6.4;5.7;;;;;;;21.29;37.87793;936.7276;;;;
2021/11/12 14:42:40;;;;;;;8.2;5.8;;;;;;;20.72;38.89258;936.7098;;;;
2021/11/12 14:44:15;;;;;;;7.1;5.5;;;;;;;19.75;40.25391;936.7695;;;;
2021/11/12 14:46:19;;;;;;;7.8;6.2;;;;;;;18.45;43.01855;936.7797;;;;
2021/11/12 14:48:47;;;;;;;6.9;6.1;;;;;;;16.91;47.1084;936.8709;;;;
2021/11/12 14:51:08;;;;;;;7;6.3;;;;;;;15.56;51.00586;936.769;;;;
2021/11/12 14:53:34;;;;;;;9.1;6.8;;;;;;;14.44;54.62012;936.7356;;;;
2021/11/12 14:56:01;;;;;;;9;7.3;;;;;;;13.48;58.29199;936.7525;;;;
2021/11/12 14:58:21;;;;;;;10.5;7.6;;;;;;;12.48;61.89746;936.753;;;;
2021/11/12 15:00:47;;;;;;;8.6;7.2;;;;;;;12;63.91406;936.8086;;;;
2021/11/12 15:03:12;;;;;;;9.8;8.2;;;;;;;11.4;66.34277;936.8082;;;;
2021/11/12 15:05:38;;;;;;;9.4;8.1;;;;;;;10.81;68.57227;936.8254;;;;
2021/11/12 15:08:06;;;;;;;9.3;8;;;;;;;10.42;70.33594;936.812;;;;
2021/11/12 15:10:29;;;;;;;9.8;8.4;;;;;;;10.22;71.30762;936.8546;;;;
2021/11/12 15:12:52;;;;;;;11.1;9.5;;;;;;;9.88;72.5293;936.8683;;;;
2021/11/12 15:15:20;;;;;;;12.4;9.6;;;;;;;9.35;74.62598;936.8832;;;;
2021/11/12 15:17:48;;;;;;;12;9.5;;;;;;;9.29;75.38965;936.873;;;;
2021/11/12 15:20:12;;;;;;;13.9;10.4;;;;;;;9.09;77.05176;936.918;;;;
2021/11/12 15:22:50;;;;;;;13.3;10.2;;;;;;;9.05;76.90527;936.969;;;;
2021/11/12 15:25:12;;;;;;;16.1;11.2;;;;;;;8.79;78.56641;937.0095;;;;
2021/11/12 15:27:45;;;;;;;16.1;11.3;;;;;;;8.58;79.88086;936.9752;;;;
2021/11/12 15:29:54;;;;;;;16.9;11.6;;;;;;;8.37;81.2373;937.0043;;;;
2021/11/12 15:32:20;;;;;;;14.4;11.5;;;;;;;8.4;81.74316;936.9738;;;;
2021/11/12 15:34:46;;;;;;;16.8;12.4;;;;;;;8.3;82.07617;936.9966;;;;
2021/11/12 15:37:09;;;;;;;17.1;12.6;;;;;;;8.34;82.17578;937.1086;;;;
2021/11/12 15:39:41;;;;;;;17.9;12.6;;;;;;;8.28;82.46094;937.0772;;;;
2021/11/12 15:42:23;;;;;;;17.8;12.5;;;;;;;8.26;82.87695;937.1594;;;;
2021/11/12 15:44:23;;;;;;;16.7;12.1;;;;;;;;;;;;;
2021/11/12 15:46:49;;;;;;;17.5;11.3;;;;;;;;;;;;;
2021/11/12 15:49:16;;;;;;;17.6;12;;;;;;;;;;;;;
2021/11/12 15:51:40;;;;;;;17.1;12.3;;;;;;;;;;;;;
2021/11/12 15:54:17;;;;;;;16.4;12.2;;;;;;;;;;;;;
2021/11/12 15:56:48;;;;;;;16.7;11.5;;;;;;;;;;;;;
2021/11/12 15:59:01;;;;;;;15.6;11.9;;;;;;;;;;;;;
2021/11/12 16:01:28;;;;;;;18.1;13.7;;;;;;;;;;;;;
2021/11/12 16:06:44;;;;;;;19;11.3;;;;;;;;;;;;;
2021/11/12 16:08:41;;;;;;;17.7;11.8;;;;;;;;;;;;;
2021/11/12 16:11:15;;;;;;;17;11.8;;;;;;;;;;;;;
2021/11/12 16:13:25;;;;;;;18.1;11;;;;;;;;;;;;;
2021/11/12 16:16:15;;;;;;;17.4;11.7;;;;;;;;;;;;;
2021/11/12 16:18:25;;;;;;;24.3;12.1;;;;;;;;;;;;;
2021/11/12 16:20:57;;;;;;;21.6;10.7;;;;;;;;;;;;;
2021/11/12 16:25:31;;;;;;;20.1;12.6;;;;;;;;;;;;;
2021/11/12 16:27:59;;;;;;;27.3;13.1;;;;;;;;;;;;;
2021/11/12 16:30:22;;;;;;;20.7;14;;;;;;;;;;;;;
2021/11/12 16:32:48;;;;;;;23.1;12.3;;;;;;;;;;;;;
2021/11/12 16:35:11;;;;;;;21.9;13.9;;;;;;;;;;;;;
2021/11/12 16:37:36;;;;;;;24.3;16.5;;;;;;;;;;;;;
2021/11/12 16:40:04;;;;;;;27.9;17.3;;;;;;;;;;;;;
2021/11/12 16:43:12;;;;;;;28;17.9;;;;;;;;;;;;;
2021/11/12 16:44:56;;;;;;;39;23.1;;;;;;;;;;;;;
2021/11/12 16:47:34;;;;;;;37.6;21.9;;;;;;;;;;;;;
2021/11/12 16:49:49;;;;;;;40;23.7;;;;;;;;;;;;;
2021/11/12 16:52:14;;;;;;;41;25.4;;;;;;;;;;;;;
2021/11/12 16:54:39;;;;;;;40.1;24.4;;;;;;;;;;;;;
2021/11/12 16:59:25;;;;;;;65;35.3;;;;;;;;;;;;;
2021/11/12 17:02:16;;;;;;;45.3;26.6;;;;;;;;;;;;;
2021/11/12 17:06:41;;;;;;;49.7;27.8;;;;;;;;;;;;;
2021/11/12 17:09:20;;;;;;;50.7;27.8;;;;;;;;;;;;;
2021/11/12 17:11:34;;;;;;;42.9;25.9;;;;;;;;;;;;;
2021/11/12 17:14:10;;;;;;;40.6;25.2;;;;;;;;;;;;;
2021/11/12 17:18:56;;;;;;;33.6;22.3;;;;;;;;;;;;;
2021/11/12 17:21:40;;;;;;;35.7;23.6;;;;;;;;;;;;;
2021/11/12 17:47:49;;;;;;;31;22.5;;;;;;;;;;;;;
2021/11/12 17:50:17;;;;;;;31.6;23.8;;;;;;;;;;;;;
2021/11/12 18:02:23;;;;;;;34.5;24.8;;;;;;;;;;;;;
2021/11/12 18:05:00;;;;;;;34.5;24.4;;;;;;;;;;;;;
2021/11/12 18:07:19;;;;;;;27.6;20.9;;;;;;;;;;;;;
2021/11/12 18:10:13;;;;;;;27.9;20.3;;;;;;;;;;;;;
2021/11/12 18:13:00;;;;;;;27.2;20.9;;;;;;;;;;;;;
2021/11/12 18:14:51;;;;;;;29.2;20.4;;;;;;;;;;;;;
2021/11/12 18:17:20;;;;;;;25.9;19.3;;;;;;;;;;;;;
2021/11/12 18:21:54;;;;;;;23.5;17.4;;;;;;;;;;;;;
2021/11/12 21:45:12;;;;;;;53.8;32.3;;;;;;;;;;;;;
2021/11/12 21:47:34;;;;;;;51.8;30.5;;;;;;;;;;;;;
2021/11/12 21:49:59;;;;;;;53.6;31.4;;;;;;;;;;;;;
2021/11/12 21:52:24;;;;;;;59.2;33.6;;;;;;;;;;;;;
2021/11/12 21:54:49;;;;;;;55.7;32.6;;;;;;;;;;;;;
2021/11/12 21:57:14;;;;;;;51.2;31.8;;;;;;;;;;;;;
2021/11/12 21:59:40;;;;;;;52.8;31.5;;;;;;;;;;;;;
2021/11/12 22:02:05;;;;;;;50.7;30.1;;;;;;;;;;;;;
2021/11/12 22:04:30;;;;;;;51.4;30.4;;;;;;;;;;;;;
2021/11/12 22:06:57;;;;;;;50;30.6;;;;;;;;;;;;;
2021/11/12 22:09:20;;;;;;;46.7;29.5;;;;;;;;;;;;;
2021/11/12 22:11:45;;;;;;;48.9;29.8;;;;;;;;;;;;;
2021/11/12 22:14:11;;;;;;;46.6;29.9;;;;;;;;;;;;;
2021/11/12 22:16:36;;;;;;;54.1;31;;;;;;;;;;;;;